Time;durP1;ratioP1;P1;durP2;ratioP2;P2;SDS_P1;SDS_P2;PMS_P1;PMS_P2;Temp;Humidity;BMP_temperature;BMP_pressure;BME280_temperature;BME280_humidity;BME280_pressure;Samples;Min_cycle;Max_cycle;Signal;HPM_P1;HPM_P2
2023/10/02 00:01:47;;;;;;;1.25;1.15;;;21.60;77.00;;;;;;5115436;27;20391;-85
2023/10/02 00:04:19;;;;;;;1.50;1.40;;;21.60;76.90;;;;;;5092539;28;20060;-86
2023/10/02 00:06:46;;;;;;;1.20;1.20;;;21.60;76.90;;;;;;5091270;28;20063;-86
2023/10/02 00:09:13;;;;;;;1.85;1.25;;;21.60;76.90;;;;;;5101078;27;20044;-84
2023/10/02 00:11:41;;;;;;;1.40;1.30;;;21.60;76.90;;;;;;5084654;28;20033;-84
2023/10/02 00:14:20;;;;;;;1.48;1.38;;;21.60;76.90;;;;;;5098174;28;20035;-84
2023/10/02 00:19:27;;;;;;;0.88;0.88;;;21.50;76.90;;;;;;5095474;28;20496;-85
2023/10/02 00:21:57;;;;;;;1.42;1.33;;;21.60;77.00;;;;;;5094067;28;20065;-84
2023/10/02 00:24:27;;;;;;;1.38;1.27;;;21.60;77.00;;;;;;5086531;28;20139;-84
2023/10/02 00:26:57;;;;;;;1.50;1.40;;;21.60;77.10;;;;;;5089980;28;20038;-85
2023/10/02 00:29:23;;;;;;;1.55;1.45;;;21.50;77.00;;;;;;5090128;28;20071;-85
2023/10/02 00:31:50;;;;;;;1.15;1.05;;;21.60;76.90;;;;;;5100712;27;20077;-85
2023/10/02 00:34:16;;;;;;;0.82;0.82;;;21.60;76.90;;;;;;5097606;28;20043;-85
2023/10/02 00:36:42;;;;;;;1.25;1.20;;;21.50;76.80;;;;;;5094977;28;20122;-85
2023/10/02 00:39:30;;;;;;;1.17;1.13;;;21.50;76.90;;;;;;5091180;28;20045;-85
2023/10/02 00:44:58;;;;;;;1.02;1.02;;;21.50;76.80;;;;;;5095168;28;20113;-85
2023/10/02 00:47:42;;;;;;;1.42;1.33;;;21.60;76.80;;;;;;5094684;28;20143;-85
2023/10/02 00:50:16;;;;;;;1.40;1.30;;;21.50;76.90;;;;;;5100069;28;20052;-85
2023/10/02 00:53:03;;;;;;;1.30;1.20;;;21.50;76.80;;;;;;5102853;28;20044;-85
2023/10/02 00:55:32;;;;;;;1.63;1.52;;;21.60;76.80;;;;;;5094814;28;20063;-86
2023/10/02 00:57:59;;;;;;;1.10;1.00;;;21.50;76.70;;;;;;5092389;28;20121;-85
2023/10/02 01:00:31;;;;;;;1.67;1.58;;;21.60;76.70;;;;;;5080814;28;20048;-85
2023/10/02 01:02:57;;;;;;;1.50;1.40;;;21.50;76.70;;;;;;5096289;28;20127;-83
2023/10/02 01:05:30;;;;;;;1.00;1.00;;;21.50;76.60;;;;;;5084758;28;20052;-85
2023/10/02 01:07:59;;;;;;;1.27;1.17;;;21.50;76.70;;;;;;5090830;28;20144;-85
2023/10/02 01:10:30;;;;;;;1.58;1.48;;;21.50;76.70;;;;;;5094660;28;20040;-85
2023/10/02 01:13:05;;;;;;;1.50;1.02;;;21.50;76.60;;;;;;5071499;28;20054;-85
2023/10/02 01:15:31;;;;;;;1.08;1.08;;;21.50;76.60;;;;;;5066775;28;20040;-85
2023/10/02 01:18:21;;;;;;;1.00;1.00;;;21.50;76.70;;;;;;5086188;28;20538;-85
2023/10/02 01:20:48;;;;;;;1.38;1.30;;;21.50;76.70;;;;;;5082487;28;20076;-85
2023/10/02 01:23:17;;;;;;;1.38;1.27;;;21.50;76.60;;;;;;5092121;28;20498;-85
2023/10/02 01:25:44;;;;;;;1.00;1.00;;;21.50;76.60;;;;;;5100613;28;20039;-85
2023/10/02 01:28:13;;;;;;;1.10;1.00;;;21.50;76.60;;;;;;5084364;28;20043;-85
2023/10/02 01:30:40;;;;;;;1.17;1.08;;;21.50;76.60;;;;;;5088010;28;20039;-85
2023/10/02 01:33:12;;;;;;;1.08;1.08;;;21.50;76.50;;;;;;5076200;28;20053;-85
2023/10/02 01:35:51;;;;;;;1.10;1.10;;;21.50;76.50;;;;;;5074911;28;20490;-84
2023/10/02 01:38:30;;;;;;;0.90;0.90;;;21.50;76.50;;;;;;5085602;28;20047;-85
2023/10/02 01:41:05;;;;;;;1.13;1.10;;;21.50;76.50;;;;;;5087423;28;20312;-84
2023/10/02 01:43:33;;;;;;;1.20;1.20;;;21.50;76.50;;;;;;5094655;28;20408;-85
2023/10/02 01:46:00;;;;;;;1.23;1.23;;;21.50;76.40;;;;;;5091458;28;20074;-83
2023/10/02 01:48:41;;;;;;;0.90;0.90;;;21.50;76.40;;;;;;5084707;28;20540;-85
2023/10/02 01:51:25;;;;;;;1.40;1.30;;;21.50;76.30;;;;;;5082458;28;20459;-85
2023/10/02 01:53:54;;;;;;;1.30;1.20;;;21.50;76.40;;;;;;5087635;28;20039;-86
2023/10/02 01:56:23;;;;;;;1.20;1.20;;;21.50;76.30;;;;;;5091650;28;20044;-84
2023/10/02 01:58:49;;;;;;;0.80;0.80;;;21.50;76.30;;;;;;5088059;28;20051;-85
2023/10/02 02:01:15;;;;;;;0.90;0.90;;;21.50;76.30;;;;;;5090782;28;20055;-84
2023/10/02 02:03:48;;;;;;;1.00;1.00;;;21.50;76.30;;;;;;5088521;28;20047;-85
2023/10/02 02:06:20;;;;;;;1.58;1.17;;;21.50;76.30;;;;;;5086503;28;20051;-84
2023/10/02 02:08:53;;;;;;;1.30;1.20;;;21.50;76.30;;;;;;5092290;28;20120;-84
2023/10/02 02:11:22;;;;;;;1.10;1.00;;;21.40;76.30;;;;;;5078934;28;20048;-84
2023/10/02 02:13:52;;;;;;;1.00;1.00;;;21.50;76.30;;;;;;5101809;27;20048;-85
2023/10/02 02:16:22;;;;;;;1.08;1.05;;;21.40;76.20;;;;;;5086983;28;20093;-85
2023/10/02 02:18:53;;;;;;;1.30;1.20;;;21.40;76.20;;;;;;5093531;28;20496;-85
2023/10/02 02:21:20;;;;;;;1.20;1.20;;;21.50;76.20;;;;;;5086978;28;20519;-85
2023/10/02 02:23:46;;;;;;;1.35;1.25;;;21.40;76.20;;;;;;5089359;28;20537;-84
2023/10/02 02:26:21;;;;;;;1.20;1.10;;;21.50;76.20;;;;;;5091212;28;20552;-85
2023/10/02 02:28:48;;;;;;;0.90;0.90;;;21.50;76.20;;;;;;5090772;28;20196;-85
2023/10/02 02:31:29;;;;;;;0.98;0.98;;;21.40;76.00;;;;;;5091716;28;20035;-84
2023/10/02 02:34:09;;;;;;;1.15;1.10;;;21.50;76.10;;;;;;5080024;28;20067;-85
2023/10/02 02:36:35;;;;;;;0.90;0.90;;;21.40;76.40;;;;;;5076509;28;20036;-85
2023/10/02 02:39:15;;;;;;;0.93;0.93;;;21.50;76.10;;;;;;5092305;28;20086;-84
2023/10/02 02:41:45;;;;;;;1.00;1.00;;;21.50;76.00;;;;;;5096663;28;20061;-85
2023/10/02 02:44:32;;;;;;;0.82;0.75;;;21.40;76.00;;;;;;5094576;28;20056;-83
2023/10/02 02:46:56;;;;;;;0.93;0.93;;;21.50;76.00;;;;;;5100465;28;20055;-83
2023/10/02 02:49:25;;;;;;;1.05;1.05;;;21.50;76.10;;;;;;5092810;28;20041;-84
2023/10/02 02:51:55;;;;;;;1.00;1.00;;;21.40;75.90;;;;;;5101727;28;20046;-85
2023/10/02 02:54:25;;;;;;;1.20;1.10;;;21.50;76.10;;;;;;5099831;28;20122;-85
2023/10/02 02:56:56;;;;;;;1.08;0.98;;;21.40;76.80;;;;;;5097787;28;20139;-84
2023/10/02 02:59:26;;;;;;;1.00;1.00;;;21.40;75.90;;;;;;5098775;27;20071;-84
2023/10/02 03:02:08;;;;;;;0.95;0.95;;;21.40;76.00;;;;;;5105742;28;20047;-84
2023/10/02 03:04:38;;;;;;;1.13;1.02;;;21.40;76.00;;;;;;5092188;28;20052;-84
2023/10/02 03:07:09;;;;;;;0.82;0.82;;;21.40;75.80;;;;;;5099698;28;20043;-82
2023/10/02 03:09:35;;;;;;;1.52;1.20;;;21.40;75.90;;;;;;5100103;28;20052;-84
2023/10/02 03:12:05;;;;;;;1.27;1.27;;;21.40;75.90;;;;;;5099764;28;20067;-84
2023/10/02 03:14:34;;;;;;;1.05;1.05;;;21.40;75.90;;;;;;5093807;28;20075;-84
2023/10/02 03:17:22;;;;;;;1.10;1.00;;;21.40;76.70;;;;;;5101718;27;20036;-83
2023/10/02 03:19:45;;;;;;;1.13;1.13;;;21.40;75.90;;;;;;5099736;28;20039;-85
2023/10/02 03:22:11;;;;;;;1.10;1.10;;;21.40;75.90;;;;;;5099996;28;20050;-85
2023/10/02 03:24:39;;;;;;;1.65;1.10;;;21.40;75.80;;;;;;5099852;28;20142;-85
2023/10/02 03:27:08;;;;;;;1.73;1.15;;;21.40;75.70;;;;;;5099687;28;20035;-83
2023/10/02 03:29:34;;;;;;;1.33;1.27;;;21.40;75.70;;;;;;5094952;28;20051;-84
2023/10/02 03:31:59;;;;;;;1.30;1.20;;;21.40;75.80;;;;;;5096688;28;20044;-85
2023/10/02 03:34:27;;;;;;;0.70;0.70;;;21.40;75.80;;;;;;5086533;28;20048;-85
2023/10/02 03:37:00;;;;;;;0.93;0.93;;;21.40;75.70;;;;;;5096875;28;20024;-85
2023/10/02 03:42:21;;;;;;;0.80;0.80;;;21.40;75.70;;;;;;5094354;28;20492;-85
2023/10/02 03:44:47;;;;;;;0.95;0.95;;;21.40;75.70;;;;;;5096312;28;20039;-85
2023/10/02 03:47:13;;;;;;;0.90;0.90;;;21.40;75.70;;;;;;5096788;28;20040;-84
2023/10/02 03:49:44;;;;;;;0.70;0.70;;;21.40;75.70;;;;;;5087155;28;20039;-84
2023/10/02 03:52:13;;;;;;;0.75;0.75;;;21.40;75.60;;;;;;5093707;28;20510;-84
2023/10/02 03:54:39;;;;;;;1.00;1.00;;;21.40;75.70;;;;;;5089722;28;20576;-85
2023/10/02 03:57:06;;;;;;;1.00;1.00;;;21.40;75.60;;;;;;5095445;28;20032;-85
2023/10/02 03:59:32;;;;;;;1.10;1.10;;;21.40;75.60;;;;;;5107726;27;20044;-84
2023/10/02 04:02:24;;;;;;;0.73;0.73;;;21.40;75.60;;;;;;5097426;28;20501;-85
2023/10/02 04:04:46;;;;;;;0.90;0.90;;;21.40;75.50;;;;;;5098586;28;20043;-84
2023/10/02 04:07:12;;;;;;;0.80;0.80;;;21.40;75.50;;;;;;5091453;28;20039;-84
2023/10/02 04:09:37;;;;;;;0.75;0.75;;;21.40;75.60;;;;;;5089584;28;20050;-84
2023/10/02 04:12:06;;;;;;;0.93;0.90;;;21.40;75.40;;;;;;5111552;27;20497;-82
2023/10/02 04:14:32;;;;;;;0.70;0.70;;;21.40;75.50;;;;;;5088581;28;20116;-84
2023/10/02 04:19:49;;;;;;;0.85;0.85;;;21.40;75.50;;;;;;5096489;28;20071;-85
2023/10/02 04:22:19;;;;;;;0.80;0.80;;;21.40;75.40;;;;;;5092060;28;20126;-85
2023/10/02 04:24:54;;;;;;;0.60;0.60;;;21.40;75.50;;;;;;5096660;28;20710;-85
2023/10/02 04:32:39;;;;;;;0.77;0.77;;;21.40;75.40;;;;;;5090300;28;20047;-84
2023/10/02 04:35:40;;;;;;;0.80;0.80;;;21.40;75.40;;;;;;5088854;28;20539;-83
2023/10/02 04:37:51;;;;;;;0.85;0.85;;;21.40;75.30;;;;;;5098099;28;20047;-84
2023/10/02 04:40:22;;;;;;;0.90;0.90;;;21.40;75.40;;;;;;5088872;28;20047;-84
2023/10/02 04:42:57;;;;;;;0.50;0.50;;;21.40;75.30;;;;;;5091550;28;20048;-85
2023/10/02 04:45:26;;;;;;;0.80;0.80;;;21.40;75.30;;;;;;5079805;28;20138;-85
2023/10/02 04:47:55;;;;;;;0.80;0.80;;;21.40;75.30;;;;;;5093658;28;20126;-84
2023/10/02 04:52:56;;;;;;;1.05;1.05;;;21.40;75.30;;;;;;5089191;28;20131;-85
2023/10/02 04:55:24;;;;;;;0.80;0.80;;;21.40;75.30;;;;;;5095461;28;20622;-84
2023/10/02 04:57:54;;;;;;;1.00;1.00;;;21.40;75.20;;;;;;5075756;28;20409;-84
2023/10/02 05:01:18;;;;;;;0.80;0.80;;;21.40;75.20;;;;;;5088437;28;20038;-83
2023/10/02 05:03:17;;;;;;;0.95;0.80;;;21.40;75.10;;;;;;5091416;28;20417;-83
2023/10/02 05:05:49;;;;;;;1.15;0.70;;;21.40;75.10;;;;;;5094706;28;20032;-84
2023/10/02 05:08:23;;;;;;;0.80;0.80;;;21.40;75.20;;;;;;5095640;28;20043;-84
2023/10/02 05:10:50;;;;;;;;;;;21.40;75.10;;;;;;5096247;28;20418;-84
2023/10/02 05:13:44;;;;;;;0.70;0.70;;;21.40;75.00;;;;;;5093545;28;19922;-85
2023/10/02 05:16:11;;;;;;;0.68;0.68;;;21.40;75.00;;;;;;5087708;28;20044;-85
2023/10/02 05:18:39;;;;;;;0.90;0.90;;;21.40;75.10;;;;;;5091711;28;20495;-83
2023/10/02 05:21:05;;;;;;;0.93;0.93;;;21.40;75.30;;;;;;5090255;28;20142;-87
2023/10/02 05:23:30;;;;;;;0.90;0.90;;;21.40;75.50;;;;;;5091368;28;20508;-86
2023/10/02 05:26:02;;;;;;;0.70;0.70;;;21.40;75.50;;;;;;5093592;28;20040;-85
2023/10/02 05:28:44;;;;;;;1.85;0.90;;;21.40;75.50;;;;;;5087444;28;20599;-85
2023/10/02 05:31:11;;;;;;;0.90;0.90;;;21.40;75.10;;;;;;5073879;27;20127;-83
2023/10/02 05:33:37;;;;;;;2.45;1.10;;;21.40;73.60;;;;;;5087677;28;20044;-82
2023/10/02 05:36:05;;;;;;;1.55;1.45;;;21.30;73.50;;;;;;5090524;28;20553;-83
2023/10/02 05:38:33;;;;;;;1.70;1.60;;;21.30;72.50;;;;;;5075210;28;20470;-81
2023/10/02 05:40:59;;;;;;;6.85;1.52;;;21.20;72.50;;;;;;5098222;27;20048;-83
2023/10/02 05:43:29;;;;;;;1.50;1.40;;;21.00;72.50;;;;;;5088155;28;20128;-83
2023/10/02 05:45:55;;;;;;;3.95;1.70;;;21.00;73.80;;;;;;5089306;28;20024;-81
2023/10/02 05:50:53;;;;;;;1.50;1.40;;;21.10;72.30;;;;;;5078568;28;20154;-81
2023/10/02 05:53:20;;;;;;;1.70;1.60;;;20.90;72.50;;;;;;4733297;28;9999824;-81
2023/10/02 05:58:37;;;;;;;2.72;2.20;;;20.90;73.10;;;;;;5090935;28;20042;-80
2023/10/02 06:01:04;;;;;;;1.98;1.88;;;21.00;72.30;;;;;;5081412;28;20106;-79
2023/10/02 06:03:36;;;;;;;2.55;2.15;;;20.80;73.20;;;;;;5061080;28;20052;-77
2023/10/02 06:08:56;;;;;;;3.95;1.98;;;20.80;73.20;;;;;;5080227;28;20049;-79
2023/10/02 06:11:25;;;;;;;3.58;2.10;;;20.80;72.60;;;;;;5080916;28;20039;-82
2023/10/02 06:13:58;;;;;;;2.22;2.10;;;20.80;73.00;;;;;;5087656;28;20548;-77
2023/10/02 06:16:29;;;;;;;5.03;2.72;;;20.70;73.00;;;;;;5081294;28;20090;-78
2023/10/02 06:19:01;;;;;;;1.95;1.85;;;20.30;74.00;;;;;;5084783;28;20513;-78
2023/10/02 06:24:34;;;;;;;2.67;2.28;;;20.10;74.80;;;;;;5077133;28;20070;-78
2023/10/02 06:27:12;;;;;;;2.72;2.53;;;20.10;75.00;;;;;;5077953;28;20032;-78
2023/10/02 06:29:39;;;;;;;2.90;2.53;;;19.70;76.80;;;;;;5084868;28;20062;-79
2023/10/02 06:32:05;;;;;;;2.63;2.42;;;19.50;77.80;;;;;;5087371;28;20532;-80
2023/10/02 06:34:37;;;;;;;4.53;2.60;;;19.30;80.40;;;;;;5086325;28;20055;-80
2023/10/02 06:37:07;;;;;;;2.70;2.50;;;19.20;81.50;;;;;;5073632;28;20043;-78
2023/10/02 06:39:37;;;;;;;2.65;2.45;;;19.30;81.30;;;;;;5089271;28;20077;-79
2023/10/02 06:42:14;;;;;;;3.22;3.03;;;19.30;80.40;;;;;;5066260;28;20051;-77
2023/10/02 06:44:43;;;;;;;2.47;2.28;;;19.40;80.40;;;;;;5094607;28;20091;-77
2023/10/02 06:47:18;;;;;;;2.40;2.20;;;19.50;79.90;;;;;;5063067;28;20058;-77
2023/10/02 06:49:46;;;;;;;2.42;2.20;;;19.60;79.30;;;;;;5085894;28;20529;-77
2023/10/02 06:52:15;;;;;;;2.78;2.58;;;19.70;79.10;;;;;;5079939;28;20044;-77
2023/10/02 06:54:44;;;;;;;2.70;2.50;;;19.40;80.10;;;;;;5075261;28;20596;-79
2023/10/02 06:57:14;;;;;;;2.28;2.03;;;19.20;81.40;;;;;;5069801;28;20042;-79
2023/10/02 06:59:41;;;;;;;2.83;2.63;;;19.50;80.40;;;;;;5085395;28;20047;-79
2023/10/02 07:02:09;;;;;;;2.22;2.13;;;19.70;79.60;;;;;;5088591;28;20048;-80
2023/10/02 07:04:36;;;;;;;2.17;2.05;;;19.90;79.20;;;;;;5093090;28;20039;-80
2023/10/02 07:07:07;;;;;;;1.95;1.85;;;20.00;79.40;;;;;;5089374;28;20044;-80
2023/10/02 07:09:36;;;;;;;1.92;1.63;;;20.20;78.80;;;;;;5085857;28;20055;-80
2023/10/02 07:12:14;;;;;;;2.67;2.28;;;20.30;78.40;;;;;;5068826;28;20426;-79
2023/10/02 07:14:43;;;;;;;2.08;1.98;;;20.30;78.20;;;;;;5098743;28;20451;-79
2023/10/02 07:17:16;;;;;;;2.20;2.00;;;20.40;78.00;;;;;;5093316;28;20309;-79
2023/10/02 07:19:48;;;;;;;1.70;1.60;;;20.40;77.70;;;;;;5093811;28;20032;-79
2023/10/02 07:22:24;;;;;;;1.90;1.75;;;20.50;77.60;;;;;;5093479;28;20101;-79
2023/10/02 07:24:52;;;;;;;1.77;1.67;;;20.50;77.50;;;;;;5093337;28;20454;-79
2023/10/02 07:27:25;;;;;;;2.40;1.38;;;20.50;77.40;;;;;;5095226;28;20039;-79
2023/10/02 07:29:58;;;;;;;1.73;1.63;;;20.50;77.30;;;;;;5095765;28;20043;-80
2023/10/02 07:32:25;;;;;;;1.80;1.55;;;20.60;77.30;;;;;;5094349;28;20040;-80
2023/10/02 07:34:51;;;;;;;1.83;1.63;;;20.60;77.30;;;;;;5099776;28;20039;-79
2023/10/02 07:37:21;;;;;;;1.75;1.35;;;20.60;77.30;;;;;;5099517;28;20513;-79
2023/10/02 07:39:56;;;;;;;1.67;1.58;;;20.60;77.20;;;;;;5090015;28;20100;-79
2023/10/02 07:42:33;;;;;;;1.45;1.35;;;20.60;77.00;;;;;;5092172;28;20492;-80
2023/10/02 07:45:11;;;;;;;2.00;1.88;;;20.60;77.20;;;;;;5089599;28;20044;-80
2023/10/02 07:47:39;;;;;;;1.88;1.77;;;20.70;77.20;;;;;;5112000;27;20058;-80
2023/10/02 07:50:23;;;;;;;1.75;1.65;;;20.70;77.20;;;;;;5095589;28;20055;-79
2023/10/02 07:52:49;;;;;;;1.65;1.48;;;20.70;77.10;;;;;;5099736;28;20051;-79
2023/10/02 07:55:15;;;;;;;1.90;1.80;;;20.70;77.00;;;;;;5097235;28;20397;-79
2023/10/02 07:57:41;;;;;;;2.05;1.40;;;20.70;77.00;;;;;;5092903;28;20059;-79
2023/10/02 08:00:33;;;;;;;1.40;1.35;;;20.70;77.00;;;;;;5098263;28;20039;-79
2023/10/02 08:02:55;;;;;;;1.30;1.20;;;20.70;76.90;;;;;;5100011;27;20123;-80
2023/10/02 08:05:21;;;;;;;1.63;1.27;;;20.70;76.90;;;;;;5098041;28;20139;-80
2023/10/02 08:07:47;;;;;;;1.30;1.20;;;20.70;77.00;;;;;;5103368;28;20374;-80
2023/10/02 08:10:14;;;;;;;1.63;1.52;;;20.80;76.90;;;;;;5076780;28;20092;-79
2023/10/02 08:12:54;;;;;;;1.58;1.30;;;20.80;77.00;;;;;;5094372;28;20052;-80
2023/10/02 08:15:32;;;;;;;1.45;1.35;;;20.80;76.90;;;;;;5089081;28;20044;-80
2023/10/02 08:20:36;;;;;;;1.73;1.60;;;20.80;76.70;;;;;;5097614;28;20055;-79
2023/10/02 08:23:21;;;;;;;1.65;1.55;;;20.80;76.70;;;;;;5097032;28;20030;-79
2023/10/02 08:26:02;;;;;;;1.40;1.30;;;20.80;76.60;;;;;;5099103;28;20043;-80
2023/10/02 08:28:33;;;;;;;1.60;1.50;;;20.90;76.70;;;;;;5098572;28;20111;-79
2023/10/02 08:31:00;;;;;;;3.00;1.60;;;20.90;76.70;;;;;;5095760;28;20044;-79
2023/10/02 08:33:25;;;;;;;1.35;1.25;;;20.90;76.50;;;;;;5092650;28;20156;-79
2023/10/02 08:35:51;;;;;;;1.63;1.52;;;20.90;76.40;;;;;;5096443;28;20469;-80
2023/10/02 08:38:24;;;;;;;1.40;1.30;;;21.00;76.40;;;;;;5091826;28;20425;-79
2023/10/02 08:41:00;;;;;;;2.72;1.40;;;21.00;76.30;;;;;;5098606;27;20528;-79
2023/10/02 08:43:31;;;;;;;1.60;1.50;;;21.00;76.40;;;;;;5100010;28;20412;-79
2023/10/02 08:45:56;;;;;;;1.65;1.55;;;21.00;76.10;;;;;;5091113;28;20100;-79
2023/10/02 08:48:25;;;;;;;1.48;1.38;;;21.00;75.90;;;;;;5092128;28;20416;-80
2023/10/02 08:50:51;;;;;;;1.65;1.55;;;21.00;75.90;;;;;;5091282;28;20039;-80
2023/10/02 08:53:23;;;;;;;1.60;1.50;;;21.00;75.90;;;;;;5098912;28;20067;-80
2023/10/02 08:56:21;;;;;;;1.70;1.60;;;21.10;75.90;;;;;;5097157;28;20402;-80
2023/10/02 08:58:47;;;;;;;1.77;1.67;;;21.10;75.90;;;;;;5085879;28;20122;-80
2023/10/02 09:06:44;;;;;;;1.17;1.13;;;21.10;76.10;;;;;;5080400;28;20042;-79
2023/10/02 09:09:26;;;;;;;1.60;1.50;;;21.10;76.10;;;;;;5094205;28;20549;-79
2023/10/02 09:11:53;;;;;;;1.70;1.60;;;21.20;76.10;;;;;;5074157;28;20051;-80
2023/10/02 09:16:47;;;;;;;1.67;1.58;;;21.20;75.90;;;;;;5097799;28;20032;-80
2023/10/02 09:19:28;;;;;;;1.35;1.25;;;21.20;75.80;;;;;;5092193;28;20036;-79
2023/10/02 09:22:06;;;;;;;2.00;1.35;;;21.20;75.80;;;;;;5104933;27;20467;-80
2023/10/02 09:24:35;;;;;;;1.75;1.65;;;21.20;75.70;;;;;;5092738;28;20139;-80
2023/10/02 09:30:35;;;;;;;1.60;1.50;;;21.30;75.70;;;;;;4988072;28;20504;-79
2023/10/02 09:33:08;;;;;;;1.95;1.85;;;21.30;75.70;;;;;;4987875;28;20049;-80
2023/10/02 09:35:41;;;;;;;1.37;1.27;;;21.30;75.60;;;;;;4985844;28;20494;-80
2023/10/02 09:38:10;;;;;;;1.77;1.67;;;21.30;75.70;;;;;;4985655;28;20069;-80
2023/10/02 09:40:54;;;;;;;1.50;1.40;;;21.30;75.60;;;;;;4976138;28;20066;-80
2023/10/02 09:43:30;;;;;;;1.40;1.30;;;21.30;75.60;;;;;;4989939;28;20389;-80
2023/10/02 09:46:00;;;;;;;1.75;1.35;;;21.30;76.50;;;;;;4982881;28;20121;-80
2023/10/02 09:48:47;;;;;;;1.58;1.48;;;21.30;75.70;;;;;;4971785;28;20046;-79
2023/10/02 09:51:32;;;;;;;1.60;1.50;;;21.40;75.90;;;;;;4984066;28;20046;-80
2023/10/02 09:54:05;;;;;;;1.70;1.60;;;21.40;75.80;;;;;;4991632;28;20286;-80
2023/10/02 09:57:05;;;;;;;1.60;1.50;;;21.40;75.70;;;;;;4973391;28;20484;-80
2023/10/02 09:59:46;;;;;;;1.50;1.40;;;21.40;75.70;;;;;;4992761;28;20054;-80
2023/10/02 10:10:58;;;;;;;1.60;1.50;;;21.50;75.60;;;;;;5061875;28;20050;-79
2023/10/02 10:13:27;;;;;;;1.88;1.77;;;21.50;75.60;;;;;;5060571;28;20059;-81
2023/10/02 10:16:23;;;;;;;1.80;1.70;;;21.50;75.50;;;;;;5043799;28;20051;-79
2023/10/02 10:21:57;;;;;;;1.90;1.80;;;21.60;75.60;;;;;;5061041;28;20573;-79
2023/10/02 10:25:22;;;;;;;2.58;1.40;;;21.60;75.80;;;;;;5059163;28;20059;-80
2023/10/02 10:28:00;;;;;;;1.55;1.45;;;21.60;75.70;;;;;;5059671;28;20059;-79
2023/10/02 10:30:31;;;;;;;1.25;1.20;;;21.60;75.60;;;;;;5061422;28;20060;-79
2023/10/02 10:35:55;;;;;;;1.80;1.70;;;21.60;75.40;;;;;;5059291;28;20130;-79
2023/10/02 10:41:27;;;;;;;1.63;1.52;;;21.60;75.50;;;;;;5060212;28;20540;-80
2023/10/02 10:43:56;;;;;;;1.35;1.25;;;21.60;75.70;;;;;;5060157;28;20815;-78
2023/10/02 10:46:23;;;;;;;1.60;1.50;;;21.70;75.60;;;;;;5062199;28;20478;-80
2023/10/02 10:49:08;;;;;;;1.75;1.65;;;21.70;75.70;;;;;;5061662;28;20237;-79
2023/10/02 10:51:37;;;;;;;1.70;1.60;;;21.70;75.70;;;;;;5060414;28;20048;-79
2023/10/02 10:54:13;;;;;;;1.60;1.50;;;21.70;75.70;;;;;;5061082;28;20040;-80
2023/10/02 10:56:43;;;;;;;1.98;1.88;;;21.70;75.60;;;;;;5062620;28;20464;-79
2023/10/02 10:59:12;;;;;;;1.40;1.30;;;21.70;75.50;;;;;;5065172;28;20044;-79
2023/10/02 11:02:09;;;;;;;1.25;1.25;;;21.70;75.40;;;;;;5049765;28;20505;-79
2023/10/02 11:04:39;;;;;;;1.42;1.33;;;21.70;75.40;;;;;;5053087;28;20036;-79
2023/10/02 11:07:19;;;;;;;1.67;1.58;;;21.80;75.60;;;;;;5064667;28;20051;-79
2023/10/02 11:10:14;;;;;;;1.42;1.33;;;21.80;75.50;;;;;;5064170;28;20083;-79
2023/10/02 11:12:39;;;;;;;4.15;1.50;;;21.80;75.40;;;;;;5051023;28;20506;-79
2023/10/02 11:15:43;;;;;;;1.38;1.27;;;21.80;75.40;;;;;;5063157;28;20032;-79
2023/10/02 11:18:18;;;;;;;1.60;1.50;;;21.80;75.50;;;;;;5062794;28;20485;-79
2023/10/02 11:20:49;;;;;;;1.60;1.50;;;21.80;75.40;;;;;;5061186;28;20691;-79
2023/10/02 11:23:29;;;;;;;1.40;1.30;;;21.80;75.20;;;;;;5063362;28;20134;-79
2023/10/02 11:25:58;;;;;;;1.73;1.63;;;21.80;75.20;;;;;;5063641;28;20048;-79
2023/10/02 11:28:33;;;;;;;1.80;1.70;;;21.80;75.30;;;;;;5064670;28;20510;-79
2023/10/02 11:31:30;;;;;;;1.70;1.60;;;21.80;75.50;;;;;;5064377;28;20132;-79
2023/10/02 11:34:03;;;;;;;1.65;1.55;;;21.80;75.30;;;;;;5063665;28;20048;-79
2023/10/02 11:36:33;;;;;;;1.63;1.33;;;21.80;75.00;;;;;;5062005;28;20093;-79
2023/10/02 11:39:19;;;;;;;1.50;1.40;;;21.90;75.00;;;;;;5064109;28;21044;-79
2023/10/02 11:41:46;;;;;;;1.48;1.38;;;21.90;75.00;;;;;;5047164;28;20048;-79
2023/10/02 11:44:12;;;;;;;1.60;1.50;;;21.90;75.00;;;;;;5047416;28;20047;-79
2023/10/02 11:46:41;;;;;;;1.77;1.67;;;21.90;75.00;;;;;;5062229;28;20055;-79
2023/10/02 11:49:08;;;;;;;1.73;1.63;;;21.90;74.80;;;;;;5061869;28;20040;-80
2023/10/02 11:51:33;;;;;;;1.65;1.55;;;21.90;75.00;;;;;;5079403;28;20058;-80
2023/10/02 11:54:01;;;;;;;1.42;1.30;;;21.90;75.20;;;;;;5057031;28;20517;-80
2023/10/02 11:56:26;;;;;;;1.60;1.50;;;21.90;75.00;;;;;;5094267;28;20089;-77
2023/10/02 11:58:53;;;;;;;1.50;1.40;;;22.00;75.70;;;;;;5100829;28;20055;-77
2023/10/02 12:01:21;;;;;;;1.65;1.55;;;22.00;74.70;;;;;;5091520;28;20043;-77
2023/10/02 12:03:48;;;;;;;1.80;1.70;;;22.00;74.60;;;;;;5091083;28;20134;-76
2023/10/02 12:06:14;;;;;;;1.50;1.40;;;22.00;74.80;;;;;;5083788;28;20040;-76
2023/10/02 12:08:40;;;;;;;2.15;1.50;;;22.00;74.90;;;;;;5088636;28;20394;-77
2023/10/02 12:11:08;;;;;;;1.55;1.45;;;22.00;75.00;;;;;;5087424;28;20038;-77
2023/10/02 12:13:34;;;;;;;1.45;1.35;;;22.00;74.80;;;;;;5098089;28;20036;-78
2023/10/02 12:16:02;;;;;;;2.13;1.00;;;22.00;74.90;;;;;;5087310;28;20412;-77
2023/10/02 12:18:28;;;;;;;1.50;1.40;;;22.00;74.70;;;;;;5091169;28;20573;-77
2023/10/02 12:20:53;;;;;;;1.65;1.30;;;22.00;75.50;;;;;;5087398;28;20181;-77
2023/10/02 12:23:19;;;;;;;1.15;1.15;;;22.00;74.70;;;;;;5079720;28;20500;-77
2023/10/02 12:25:48;;;;;;;1.70;1.60;;;22.00;75.50;;;;;;5100193;28;20043;-78
2023/10/02 12:28:14;;;;;;;1.80;1.15;;;22.10;74.70;;;;;;5090292;28;20066;-77
2023/10/02 12:30:40;;;;;;;1.40;1.30;;;22.10;74.80;;;;;;4728020;28;9999915;-77
2023/10/02 12:33:05;;;;;;;1.52;1.42;;;22.10;74.90;;;;;;5087143;28;20413;-76
2023/10/02 12:35:36;;;;;;;1.50;1.40;;;22.10;74.80;;;;;;5055849;28;20467;-76
2023/10/02 12:38:03;;;;;;;1.50;1.40;;;22.10;74.70;;;;;;5096938;28;20461;-77
2023/10/02 12:40:31;;;;;;;1.20;1.20;;;22.10;74.70;;;;;;5093671;28;20424;-76
2023/10/02 12:43:03;;;;;;;1.70;1.60;;;22.10;74.70;;;;;;5055597;28;20476;-77
2023/10/02 12:45:35;;;;;;;1.40;1.30;;;22.10;74.60;;;;;;5077453;28;20416;-76
2023/10/02 12:48:06;;;;;;;1.23;1.17;;;22.10;74.60;;;;;;5068733;28;20433;-76
2023/10/02 12:50:41;;;;;;;1.35;1.30;;;22.20;74.50;;;;;;5092094;28;20043;-76
2023/10/02 12:53:08;;;;;;;1.40;1.30;;;22.10;74.60;;;;;;5109116;27;20087;-76
2023/10/02 12:55:36;;;;;;;1.50;1.40;;;22.10;74.70;;;;;;5097015;28;20417;-76
2023/10/02 12:58:04;;;;;;;1.85;1.75;;;22.20;75.50;;;;;;5071107;28;20071;-77
2023/10/02 13:00:33;;;;;;;1.45;1.35;;;22.10;74.60;;;;;;5055778;28;20059;-77
2023/10/02 13:02:59;;;;;;;1.27;1.17;;;22.10;74.60;;;;;;5069574;28;20052;-76
2023/10/02 13:05:25;;;;;;;1.20;1.15;;;22.20;75.00;;;;;;5087036;28;20055;-76
2023/10/02 13:07:55;;;;;;;1.05;1.05;;;22.10;74.70;;;;;;5091298;28;20047;-76
2023/10/02 13:10:24;;;;;;;1.27;1.17;;;22.20;74.70;;;;;;5090362;28;20127;-76
2023/10/02 13:12:49;;;;;;;1.45;1.35;;;22.20;74.60;;;;;;5068362;28;20051;-77
2023/10/02 13:15:15;;;;;;;2.30;1.40;;;22.20;74.70;;;;;;5052809;28;20520;-77
2023/10/02 13:17:42;;;;;;;1.25;1.17;;;22.20;74.70;;;;;;4714973;28;10001097;-77
2023/10/02 13:20:09;;;;;;;1.20;1.10;;;22.20;74.70;;;;;;5108093;27;20064;-77
2023/10/02 13:22:37;;;;;;;1.40;1.30;;;22.20;74.60;;;;;;5069756;28;20040;-77
2023/10/02 13:25:04;;;;;;;1.20;1.10;;;22.20;74.60;;;;;;5091913;28;20043;-77
2023/10/02 13:27:33;;;;;;;1.75;1.65;;;22.20;74.60;;;;;;5106192;27;20035;-77
2023/10/02 13:29:59;;;;;;;1.45;1.35;;;22.30;74.70;;;;;;5057473;28;20043;-77
2023/10/02 13:32:26;;;;;;;1.40;1.30;;;22.20;74.50;;;;;;5095420;28;20055;-78
2023/10/02 13:34:54;;;;;;;1.40;1.30;;;22.30;74.50;;;;;;5087558;28;20528;-77
2023/10/02 13:37:20;;;;;;;1.45;1.35;;;22.20;74.60;;;;;;5085566;28;20408;-78
2023/10/02 13:39:45;;;;;;;2.05;1.40;;;22.20;74.50;;;;;;5105144;27;20055;-78
2023/10/02 13:42:11;;;;;;;1.17;1.08;;;22.30;74.50;;;;;;5070148;28;20493;-77
2023/10/02 13:44:37;;;;;;;1.58;1.48;;;22.30;74.50;;;;;;4736771;28;10000338;-79
2023/10/02 13:47:05;;;;;;;1.60;1.50;;;22.30;74.40;;;;;;5092754;28;20115;-78
2023/10/02 13:49:31;;;;;;;1.60;1.50;;;22.30;74.50;;;;;;5088523;28;20039;-78
2023/10/02 13:51:56;;;;;;;1.40;1.30;;;22.30;74.40;;;;;;5090276;28;20045;-77
2023/10/02 13:54:22;;;;;;;1.00;1.00;;;22.30;74.40;;;;;;5066047;28;20036;-77
2023/10/02 13:56:47;;;;;;;0.82;0.82;;;22.30;74.50;;;;;;5092071;28;20036;-78
2023/10/02 13:59:14;;;;;;;1.00;1.00;;;22.30;74.40;;;;;;5094023;28;20066;-78
2023/10/02 14:01:40;;;;;;;1.02;1.02;;;22.30;74.40;;;;;;5095481;28;20097;-78
2023/10/02 14:04:06;;;;;;;1.50;1.30;;;22.30;74.40;;;;;;5055035;28;20044;-77
2023/10/02 14:06:32;;;;;;;1.38;1.27;;;22.30;74.50;;;;;;5068224;28;20044;-77
2023/10/02 14:08:57;;;;;;;1.10;1.10;;;22.30;74.50;;;;;;5089380;28;22719;-78
2023/10/02 14:11:24;;;;;;;1.02;1.02;;;22.30;74.50;;;;;;5106041;27;20609;-77